Main page
METAR-TAF:

METAR-TAF

Airports :

Longyearbyen, Longyear,

Svalbard Airport

latitude: Norway, longitude: 78-15N, elevation: 015-28E m

Current weather observation

The report was made 17 minutes ago, at 07:50 UTC
Wind 9 kt from the East
Temperature -4°C
Humidity 93%
Pressure 1000 hPa
Visibility: 2000 m
light snow

METAR: ENSB 040750Z 10009KT 2000 -SN VV008 M04/M05 Q1000 RMK WIND 1400FT 07015KT

Time: 08:07 (08:07 UTC)

Forecast

Forecast valid from 04 at 07 UTC to 05 at 06 UTC
Wind 10 kt from the East/Southeast
Visibility 10 km or more
Few clouds at a height of 3000 ft
Broken clouds at a height of 7000 ft
Becoming
from 04 at 07 UTC to 04 at 09 UTC
Wind 20 kt from the East
Temporary
from 04 at 07 UTC to 04 at 18 UTC
Visibility: 1500 m
at a height of 800 ft
snow
Becoming
from 04 at 17 UTC to 04 at 19 UTC
Wind 8 kt from the West

TAF: ENSB 0407/0506 12010KT 9999 FEW030 BKN070 BECMG 0407/0409 10020KT TEMPO 0407/0418 1500 SN VV008 BECMG 0417/0419 26008KT

Weather observations and forecasts of more than 4000 airports (METAR and TAF reports).

The available stations are represented by yellow and red dots on the map.

Hover mouse over dot to see the name of the station.

Then click to see weather observations and forecasts.

To change the map : click on the green buttons with a black cross to zoom in, on the green button with a dash to zoom out, or on the green arrows for adjacent maps.


METAR-TAF: